createdAt,value
2023-01-15T00:01:34.683Z,98734.69
2023-01-15T00:04:03.763Z,98740.41
2023-01-15T00:06:32.667Z,98741.63
2023-01-15T00:08:59.342Z,98745.03
2023-01-15T00:11:25.819Z,98748.81
2023-01-15T00:13:52.849Z,98753.06
2023-01-15T00:16:21.905Z,98745.44
2023-01-15T00:18:52.583Z,98723.75
2023-01-15T00:21:20.897Z,98738.53
2023-01-15T00:24:07.201Z,98737.88
2023-01-15T00:26:53.500Z,98741.16
2023-01-15T00:29:20.865Z,98738.44
2023-01-15T00:31:57.933Z,98736.03
2023-01-15T00:34:25.876Z,98728.22
2023-01-15T00:36:52.830Z,98730.75
2023-01-15T00:39:19.403Z,98725.53
2023-01-15T00:41:46.077Z,98725.50
2023-01-15T00:44:12.475Z,98710.72
2023-01-15T00:46:39.065Z,98734.16
2023-01-15T00:49:05.558Z,98739.28
2023-01-15T00:51:32.028Z,98750.41
2023-01-15T00:53:58.709Z,98760.50
2023-01-15T00:56:25.111Z,98768.47
2023-01-15T00:58:51.529Z,98769.31
2023-01-15T01:01:18.353Z,98775.19
2023-01-15T01:03:48.876Z,98800.16
2023-01-15T01:06:16.957Z,98805.59
2023-01-15T01:08:46.167Z,98829.56
2023-01-15T01:11:16.643Z,98836.53
2023-01-15T01:13:44.564Z,98849.19
2023-01-15T01:16:22.353Z,98845.53
2023-01-15T01:18:48.933Z,98873.00
2023-01-15T01:21:15.409Z,98877.56
2023-01-15T01:23:41.828Z,98891.88
2023-01-15T01:26:08.288Z,98889.78
2023-01-15T01:28:34.707Z,98890.91
2023-01-15T01:31:04.988Z,98906.28
2023-01-15T01:33:31.452Z,98914.88
2023-01-15T01:35:57.902Z,98897.63
2023-01-15T01:38:24.378Z,98905.56
2023-01-15T01:40:50.821Z,98914.25
2023-01-15T01:43:23.752Z,98906.47
2023-01-15T01:45:50.240Z,98918.47
2023-01-15T01:48:21.099Z,98929.94
2023-01-15T01:50:49.848Z,98932.75
2023-01-15T01:53:23.020Z,98942.03
2023-01-15T01:55:51.386Z,98960.81
2023-01-15T01:58:19.949Z,98962.84
2023-01-15T02:00:48.875Z,98973.38
2023-01-15T02:03:16.174Z,98975.63
2023-01-15T02:05:51.567Z,98965.03
2023-01-15T02:08:18.738Z,98977.16
2023-01-15T02:10:51.855Z,98980.59
2023-01-15T02:13:38.739Z,98971.06
2023-01-15T02:16:16.546Z,98968.22
2023-01-15T02:19:07.008Z,98980.88
2023-01-15T02:21:58.762Z,98982.88
2023-01-15T02:24:47.425Z,98973.69
2023-01-15T02:27:20.605Z,98986.59
2023-01-15T02:29:59.342Z,98976.88
2023-01-15T02:32:50.289Z,98985.28
2023-01-15T02:35:41.949Z,98972.03
2023-01-15T02:38:12.408Z,98981.22
2023-01-15T02:40:41.096Z,98978.16
2023-01-15T02:43:09.119Z,98985.28
2023-01-15T02:45:40.712Z,98977.63
2023-01-15T02:48:13.687Z,98997.31
2023-01-15T02:50:44.547Z,98990.38
2023-01-15T02:53:17.264Z,98999.22
2023-01-15T02:55:49.334Z,99004.94
2023-01-15T02:58:26.006Z,99008.91
2023-01-15T03:00:56.675Z,99013.94
2023-01-15T03:03:45.105Z,99016.31
2023-01-15T03:06:21.964Z,99009.03
2023-01-15T03:08:48.522Z,99005.84
2023-01-15T03:11:17.035Z,99001.00
2023-01-15T03:13:48.955Z,98990.53
2023-01-15T03:16:39.051Z,98996.53
2023-01-15T03:19:34.201Z,98988.38
2023-01-15T03:22:10.379Z,98991.47
2023-01-15T03:24:43.774Z,98985.88
2023-01-15T03:27:11.137Z,98983.22
2023-01-15T03:29:42.256Z,98971.81
2023-01-15T03:32:08.946Z,98980.03
2023-01-15T03:34:45.062Z,98980.53
2023-01-15T03:37:12.703Z,98962.19
2023-01-15T03:39:40.370Z,98966.31
2023-01-15T03:42:24.721Z,98968.84
2023-01-15T03:45:12.995Z,98960.84
2023-01-15T03:48:15.847Z,98974.66
2023-01-15T03:51:12.210Z,98963.00
2023-01-15T03:53:57.760Z,98957.09
2023-01-15T03:56:44.841Z,98957.94
2023-01-15T03:59:38.060Z,98957.88
2023-01-15T04:02:08.685Z,98960.94
2023-01-15T04:04:35.958Z,98964.97
2023-01-15T04:07:03.097Z,98957.94
2023-01-15T04:09:30.316Z,98941.81
2023-01-15T04:12:01.142Z,98942.28
2023-01-15T04:14:30.294Z,98928.94
2023-01-15T04:16:56.757Z,98932.81
2023-01-15T04:19:23.173Z,98933.66
2023-01-15T04:21:49.612Z,98931.78
2023-01-15T04:24:16.017Z,98921.75
2023-01-15T04:26:42.430Z,98920.34
2023-01-15T04:29:08.867Z,98922.50
2023-01-15T04:31:36.220Z,98901.31
2023-01-15T04:34:03.902Z,98908.34
2023-01-15T04:36:30.805Z,98906.81
2023-01-15T04:38:59.228Z,98898.94
2023-01-15T04:41:44.352Z,98915.25
2023-01-15T04:44:10.751Z,98917.00
2023-01-15T04:46:40.135Z,98909.13
2023-01-15T04:49:10.641Z,98906.41
2023-01-15T04:51:37.435Z,98903.69
2023-01-15T04:54:05.474Z,98896.53
2023-01-15T04:56:32.731Z,98899.25
2023-01-15T04:59:02.953Z,98890.06
2023-01-15T05:01:29.567Z,98882.22
2023-01-15T05:03:57.672Z,98888.22
2023-01-15T05:06:25.451Z,98879.13
2023-01-15T05:08:52.537Z,98870.03
2023-01-15T05:11:19.279Z,98876.75
2023-01-15T05:13:45.698Z,98876.97
2023-01-15T05:16:14.521Z,98865.59
2023-01-15T05:18:42.619Z,98875.19
2023-01-15T05:21:18.329Z,98878.06
2023-01-15T05:23:45.392Z,98871.59
2023-01-15T05:26:11.887Z,98881.66
2023-01-15T05:28:38.742Z,98878.63
2023-01-15T05:31:10.118Z,98875.34
2023-01-15T05:33:37.995Z,98887.75
2023-01-15T05:36:07.396Z,98878.44
2023-01-15T05:38:34.814Z,98879.94
2023-01-15T05:41:28.284Z,98886.81
2023-01-15T05:43:56.003Z,98877.75
2023-01-15T05:46:23.212Z,98875.78
2023-01-15T05:48:49.686Z,98885.25
2023-01-15T05:51:16.293Z,98885.09
2023-01-15T05:53:42.968Z,98880.91
2023-01-15T05:56:09.438Z,98895.16
2023-01-15T05:58:36.542Z,98883.41
2023-01-15T06:01:08.509Z,98879.25
2023-01-15T06:03:35.425Z,98887.69
2023-01-15T06:06:02.025Z,98896.78
2023-01-15T06:08:28.447Z,98894.94
2023-01-15T06:10:54.866Z,98895.59
2023-01-15T06:13:21.296Z,98889.34
2023-01-15T06:15:47.776Z,98888.31
2023-01-15T06:18:17.000Z,98889.81
2023-01-15T06:20:43.895Z,98880.97
2023-01-15T06:23:10.396Z,98895.47
2023-01-15T06:25:37.552Z,98905.66
2023-01-15T06:28:08.567Z,98911.06
2023-01-15T06:30:39.274Z,98918.78
2023-01-15T06:33:07.478Z,98916.56
2023-01-15T06:35:34.092Z,98921.81
2023-01-15T06:38:00.549Z,98922.75
2023-01-15T06:40:28.822Z,98923.94
2023-01-15T06:43:17.088Z,98923.50
2023-01-15T06:46:02.562Z,98921.28
2023-01-15T06:48:29.188Z,98926.75
2023-01-15T06:50:55.724Z,98928.84
2023-01-15T06:53:23.136Z,98925.00
2023-01-15T06:55:49.602Z,98925.34
2023-01-15T06:58:16.051Z,98925.97
2023-01-15T07:00:44.481Z,98925.25
2023-01-15T07:03:14.234Z,98934.31
2023-01-15T07:05:41.375Z,98939.88
2023-01-15T07:08:07.993Z,98934.75
2023-01-15T07:10:35.631Z,98924.53
2023-01-15T07:13:02.525Z,98924.25
2023-01-15T07:15:29.065Z,98927.09
2023-01-15T07:17:56.687Z,98927.38
2023-01-15T07:20:23.642Z,98939.56
2023-01-15T07:22:53.854Z,98924.34
2023-01-15T07:25:20.398Z,98920.56
2023-01-15T07:27:48.097Z,98927.31
2023-01-15T07:30:15.380Z,98928.09
2023-01-15T07:32:42.171Z,98923.59
2023-01-15T07:35:10.139Z,98915.69
2023-01-15T07:37:37.756Z,98924.50
2023-01-15T07:40:04.926Z,98909.72
2023-01-15T07:42:49.879Z,98921.13
2023-01-15T07:45:34.847Z,98934.66
2023-01-15T07:48:30.900Z,98925.34
2023-01-15T07:50:57.396Z,98921.53
2023-01-15T07:53:23.788Z,98921.19
2023-01-15T07:55:50.253Z,98929.53
2023-01-15T07:58:16.856Z,98931.69
2023-01-15T08:00:43.369Z,98931.16
2023-01-15T08:03:09.906Z,98935.06
2023-01-15T08:05:36.346Z,98941.00
2023-01-15T08:08:02.846Z,98942.53
2023-01-15T08:10:29.366Z,98929.81
2023-01-15T08:13:34.001Z,98937.44
2023-01-15T08:16:00.508Z,98930.22
2023-01-15T08:18:26.977Z,98931.81
2023-01-15T08:20:53.403Z,98932.44
2023-01-15T08:23:19.872Z,98927.34
2023-01-15T08:25:46.305Z,98923.94
2023-01-15T08:28:14.521Z,98926.25
2023-01-15T08:30:40.998Z,98928.63
2023-01-15T08:33:07.448Z,98927.78
2023-01-15T08:35:34.477Z,98929.75
2023-01-15T08:38:08.092Z,98932.59
2023-01-15T08:40:36.378Z,98951.41
2023-01-15T08:43:03.082Z,98957.06
2023-01-15T08:45:29.484Z,98961.84
2023-01-15T08:48:00.320Z,98946.16
2023-01-15T08:50:26.750Z,98962.78
2023-01-15T08:52:53.434Z,98955.25
2023-01-15T08:55:20.010Z,98947.25
2023-01-15T08:57:46.476Z,98941.22
2023-01-15T09:00:13.483Z,98932.50
2023-01-15T09:02:39.906Z,98932.25
2023-01-15T09:05:06.654Z,98930.44
2023-01-15T09:07:35.220Z,98934.56
2023-01-15T09:10:01.777Z,98931.25
2023-01-15T09:12:29.205Z,98923.66
2023-01-15T09:15:02.120Z,98934.09
2023-01-15T09:17:31.052Z,98938.34
2023-01-15T09:19:57.513Z,98949.16
2023-01-15T09:22:25.313Z,98956.94
2023-01-15T09:24:51.734Z,98963.44
2023-01-15T09:27:18.153Z,98951.34
2023-01-15T09:29:44.581Z,98958.41
2023-01-15T09:32:11.075Z,98964.59
2023-01-15T09:34:37.557Z,98975.19
2023-01-15T09:37:04.074Z,98971.44
2023-01-15T09:39:30.571Z,98974.72
2023-01-15T09:42:24.328Z,98974.00
2023-01-15T09:44:53.747Z,98981.72
2023-01-15T09:47:33.168Z,98981.69
2023-01-15T09:50:30.731Z,98981.03
2023-01-15T09:53:20.010Z,98979.44
2023-01-15T09:55:49.267Z,98992.31
2023-01-15T09:58:19.929Z,98962.97
2023-01-15T10:00:49.214Z,98978.44
2023-01-15T10:03:29.098Z,98978.22
2023-01-15T10:06:02.578Z,98969.00
2023-01-15T10:08:36.891Z,98974.88
2023-01-15T10:11:05.893Z,98961.19
2023-01-15T10:13:54.842Z,98966.75
2023-01-15T10:16:33.747Z,98979.53
2023-01-15T10:19:02.673Z,98969.63
2023-01-15T10:21:40.974Z,98976.44
2023-01-15T10:24:19.264Z,98987.34
2023-01-15T10:26:56.063Z,98988.44
2023-01-15T10:29:45.630Z,98997.53
2023-01-15T10:33:07.609Z,98995.03
2023-01-15T10:35:49.123Z,98992.66
2023-01-15T10:38:38.030Z,99000.66
2023-01-15T10:41:29.925Z,98995.78
2023-01-15T10:44:19.233Z,98979.59
2023-01-15T10:46:55.079Z,98976.38
2023-01-15T10:49:22.423Z,98984.50
2023-01-15T10:52:02.569Z,98998.53
2023-01-15T10:54:45.385Z,99007.91
2023-01-15T10:57:17.377Z,99004.72
2023-01-15T10:59:54.957Z,98995.59
2023-01-15T11:02:27.654Z,98995.72
2023-01-15T11:04:54.381Z,99005.38
2023-01-15T11:07:35.743Z,98991.41
2023-01-15T11:10:06.442Z,99005.03
2023-01-15T11:12:51.580Z,98996.03
2023-01-15T11:15:42.841Z,98990.53
2023-01-15T11:18:42.337Z,98978.00
2023-01-15T11:21:15.354Z,98980.19
2023-01-15T11:23:42.147Z,98977.72
2023-01-15T11:26:10.182Z,98985.47
2023-01-15T11:28:43.035Z,98981.50
2023-01-15T11:31:11.558Z,98992.47
2023-01-15T11:33:39.177Z,98984.06
2023-01-15T11:36:08.147Z,98997.59
2023-01-15T11:38:46.575Z,99000.38
2023-01-15T11:41:20.294Z,98998.72
2023-01-15T11:44:16.589Z,98993.72
2023-01-15T11:47:04.951Z,98988.25
2023-01-15T11:49:49.805Z,98989.47
2023-01-15T11:52:20.355Z,98988.03
2023-01-15T11:54:51.072Z,98978.53
2023-01-15T11:57:30.178Z,98978.88
2023-01-15T11:59:57.888Z,98962.19
2023-01-15T12:02:41.163Z,98967.06
2023-01-15T12:05:18.035Z,98976.63
2023-01-15T12:07:45.422Z,98977.09
2023-01-15T12:10:55.016Z,98967.31
2023-01-15T12:13:54.854Z,98987.41
2023-01-15T12:16:41.370Z,98977.97
2023-01-15T12:19:35.322Z,98984.31
2023-01-15T12:22:17.765Z,98975.44
2023-01-15T12:24:47.173Z,98968.41
2023-01-15T12:27:29.768Z,98973.97
2023-01-15T12:30:17.675Z,98974.41
2023-01-15T12:32:52.783Z,98965.25
2023-01-15T12:35:25.743Z,98949.75
2023-01-15T12:37:56.701Z,98971.53
2023-01-15T12:40:23.191Z,98967.66
2023-01-15T12:43:11.785Z,98976.50
2023-01-15T12:45:48.131Z,98981.28
2023-01-15T12:48:35.484Z,98974.28
2023-01-15T12:51:05.286Z,98977.56
2023-01-15T12:53:44.534Z,98971.81
2023-01-15T12:56:21.961Z,98959.16
2023-01-15T12:59:06.200Z,98961.59
2023-01-15T13:01:51.133Z,98963.88
2023-01-15T13:04:41.924Z,98976.47
2023-01-15T13:07:37.325Z,98984.50
2023-01-15T13:10:10.736Z,98977.56
2023-01-15T13:12:37.136Z,98978.63
2023-01-15T13:15:04.748Z,98961.66
2023-01-15T13:17:51.453Z,98975.09
2023-01-15T13:20:48.685Z,98975.25
2023-01-15T13:23:20.819Z,98970.69
2023-01-15T13:25:53.377Z,98972.41
2023-01-15T13:28:22.786Z,98961.94
2023-01-15T13:30:55.120Z,98960.00
2023-01-15T13:33:28.016Z,98953.22
2023-01-15T13:36:03.580Z,98967.94
2023-01-15T13:38:32.985Z,98967.66
2023-01-15T13:40:59.531Z,98953.28
2023-01-15T13:43:34.814Z,98978.44
2023-01-15T13:46:03.980Z,98978.53
2023-01-15T13:48:44.548Z,98978.78
2023-01-15T13:51:43.042Z,98976.97
2023-01-15T13:54:16.738Z,98986.47
2023-01-15T13:56:44.612Z,98985.31
2023-01-15T13:59:45.229Z,98991.19
2023-01-15T14:02:24.828Z,98986.13
2023-01-15T14:04:52.042Z,99000.75
2023-01-15T14:07:20.676Z,98973.75
2023-01-15T14:09:47.111Z,98985.56
2023-01-15T14:12:21.735Z,98980.28
2023-01-15T14:15:19.003Z,98987.50
2023-01-15T14:18:10.293Z,98987.78
2023-01-15T14:20:57.329Z,98988.13
2023-01-15T14:23:35.929Z,98981.41
2023-01-15T14:26:26.354Z,98976.84
2023-01-15T14:29:22.229Z,98977.50
2023-01-15T14:32:09.692Z,98986.03
2023-01-15T14:34:36.403Z,98991.66
2023-01-15T14:37:41.243Z,98984.25
2023-01-15T14:40:25.988Z,98993.75
2023-01-15T14:43:02.671Z,98995.44
2023-01-15T14:45:40.271Z,98996.25
2023-01-15T14:48:17.718Z,98995.91
2023-01-15T14:50:45.352Z,99017.94
2023-01-15T14:53:11.728Z,99002.94
2023-01-15T14:55:39.963Z,99009.09
2023-01-15T14:58:16.299Z,99003.78
2023-01-15T15:00:45.896Z,99010.34
2023-01-15T15:03:22.812Z,99012.31
2023-01-15T15:05:49.694Z,99013.13
2023-01-15T15:08:19.455Z,99011.09
2023-01-15T15:10:53.699Z,99002.34
2023-01-15T15:13:28.808Z,99008.19
2023-01-15T15:16:10.115Z,99004.56
2023-01-15T15:18:44.029Z,99013.03
2023-01-15T15:21:16.867Z,99015.91
2023-01-15T15:24:09.489Z,99018.72
2023-01-15T15:26:37.841Z,99026.69
2023-01-15T15:29:12.392Z,99019.53
2023-01-15T15:31:40.919Z,99021.59
2023-01-15T15:34:15.938Z,99023.50
2023-01-15T15:36:45.804Z,99023.63
2023-01-15T15:39:47.412Z,99031.19
2023-01-15T15:42:52.077Z,99031.69
2023-01-15T15:45:38.571Z,99031.50
2023-01-15T15:48:53.175Z,99034.78
2023-01-15T15:51:42.510Z,99025.41
2023-01-15T15:54:11.947Z,99039.50
2023-01-15T15:56:44.151Z,99028.78
2023-01-15T15:59:27.505Z,99023.38
2023-01-15T16:01:55.550Z,99020.28
2023-01-15T16:04:22.832Z,99023.44
2023-01-15T16:06:49.436Z,99025.16
2023-01-15T16:09:21.934Z,99023.56
2023-01-15T16:11:50.695Z,99028.72
2023-01-15T16:14:18.260Z,99017.69
2023-01-15T16:16:48.027Z,99026.44
2023-01-15T16:19:21.316Z,99009.88
2023-01-15T16:21:49.376Z,99029.28
2023-01-15T16:24:27.657Z,99036.47
2023-01-15T16:27:00.568Z,99023.84
2023-01-15T16:29:30.807Z,99024.69
2023-01-15T16:31:59.711Z,99030.06
2023-01-15T16:34:32.593Z,99038.34
2023-01-15T16:37:26.560Z,99028.16
2023-01-15T16:43:15.627Z,99041.25
2023-01-15T16:45:57.354Z,99037.25
2023-01-15T16:48:38.248Z,99048.75
2023-01-15T16:51:34.601Z,99060.69
2023-01-15T16:54:04.147Z,99063.19
2023-01-15T16:56:39.719Z,99063.63
2023-01-15T16:59:17.953Z,99053.22
2023-01-15T17:02:17.715Z,99051.91
2023-01-15T17:04:45.547Z,99052.56
2023-01-15T17:07:37.080Z,99063.94
2023-01-15T17:10:06.389Z,99060.50
2023-01-15T17:12:42.282Z,99062.25
2023-01-15T17:15:18.183Z,99044.22
2023-01-15T17:17:48.767Z,99061.41
2023-01-15T17:20:16.400Z,99070.88
2023-01-15T17:22:47.499Z,99055.56
2023-01-15T17:25:27.256Z,99058.25
2023-01-15T17:27:59.468Z,99076.22
2023-01-15T17:30:34.609Z,99053.72
2023-01-15T17:33:02.758Z,99065.94
2023-01-15T17:35:31.917Z,99058.53
2023-01-15T17:37:58.739Z,99061.97
2023-01-15T17:40:25.287Z,99062.25
2023-01-15T17:42:51.806Z,99056.59
2023-01-15T17:45:27.162Z,99076.38
2023-01-15T17:47:53.753Z,99073.59
2023-01-15T17:50:20.788Z,99058.59
2023-01-15T17:52:47.723Z,99080.56
2023-01-15T17:55:39.273Z,99080.03
2023-01-15T17:58:24.029Z,99079.06
2023-01-15T18:01:11.310Z,99084.75
2023-01-15T18:04:01.627Z,99100.22
2023-01-15T18:06:28.650Z,99089.06
2023-01-15T18:08:58.873Z,99101.00
2023-01-15T18:11:25.395Z,99080.09
2023-01-15T18:13:52.429Z,99091.50
2023-01-15T18:16:19.235Z,99084.66
2023-01-15T18:18:45.693Z,99092.19
2023-01-15T18:21:12.138Z,99100.22
2023-01-15T18:23:39.594Z,99101.75
2023-01-15T18:26:08.352Z,99107.66
2023-01-15T18:28:36.461Z,99099.69
2023-01-15T18:31:03.466Z,99088.50
2023-01-15T18:33:29.983Z,99094.19
2023-01-15T18:36:08.769Z,99104.78
2023-01-15T18:38:36.876Z,99108.44
2023-01-15T18:41:33.692Z,99110.78
2023-01-15T18:44:19.642Z,99109.69
2023-01-15T18:46:49.517Z,99119.19
2023-01-15T18:49:16.561Z,99111.88
2023-01-15T18:51:42.993Z,99105.56
2023-01-15T18:54:10.222Z,99105.31
2023-01-15T18:56:40.049Z,99114.09
2023-01-15T18:59:08.447Z,99113.75
2023-01-15T19:01:35.196Z,99117.56
2023-01-15T19:04:02.344Z,99113.91
2023-01-15T19:06:28.846Z,99105.97
2023-01-15T19:08:55.327Z,99105.16
2023-01-15T19:11:21.803Z,99107.91
2023-01-15T19:14:08.167Z,99117.22
2023-01-15T19:16:53.223Z,99122.34
2023-01-15T19:19:19.712Z,99115.78
2023-01-15T19:21:46.981Z,99120.06
2023-01-15T19:24:13.742Z,99107.16
2023-01-15T19:26:40.311Z,99112.13
2023-01-15T19:29:06.977Z,99114.75
2023-01-15T19:31:37.009Z,99116.53
2023-01-15T19:34:32.093Z,99116.00
2023-01-15T19:36:54.592Z,99121.72
2023-01-15T19:39:21.433Z,99119.88
2023-01-15T19:42:06.387Z,99109.88
2023-01-15T19:44:51.144Z,99115.88
2023-01-15T19:47:43.432Z,99121.00
2023-01-15T19:50:19.063Z,99113.31
2023-01-15T19:52:47.285Z,99122.91
2023-01-15T19:55:15.170Z,99114.19
2023-01-15T19:57:43.708Z,99123.91
2023-01-15T20:00:12.899Z,99123.06
2023-01-15T20:02:39.678Z,99129.84
2023-01-15T20:05:07.193Z,99126.09
2023-01-15T20:07:33.626Z,99132.88
2023-01-15T20:10:00.153Z,99120.56
2023-01-15T20:12:44.892Z,99113.59
2023-01-15T20:15:11.406Z,99117.44
2023-01-15T20:17:37.839Z,99117.84
2023-01-15T20:20:04.773Z,99122.78
2023-01-15T20:22:32.109Z,99120.50
2023-01-15T20:24:58.530Z,99133.78
2023-01-15T20:27:25.038Z,99127.84
2023-01-15T20:30:04.041Z,99115.94
2023-01-15T20:32:30.506Z,99121.28
2023-01-15T20:34:57.247Z,99122.44
2023-01-15T20:37:23.920Z,99122.38
2023-01-15T20:39:52.297Z,99116.28
2023-01-15T20:42:37.183Z,99119.47
2023-01-15T20:45:10.718Z,99126.75
2023-01-15T20:47:58.091Z,99118.63
2023-01-15T20:50:27.976Z,99120.44
2023-01-15T20:52:58.582Z,99132.22
2023-01-15T20:55:49.644Z,99123.16
2023-01-15T20:58:22.690Z,99129.94
2023-01-15T21:00:49.237Z,99120.34
2023-01-15T21:03:15.677Z,99133.38
2023-01-15T21:05:42.069Z,99134.03
2023-01-15T21:08:08.486Z,99123.91
2023-01-15T21:10:34.967Z,99129.41
2023-01-15T21:13:01.373Z,99135.06
2023-01-15T21:15:27.867Z,99129.34
2023-01-15T21:17:54.268Z,99139.25
2023-01-15T21:20:20.684Z,99136.00
2023-01-15T21:22:47.470Z,99135.34
2023-01-15T21:25:13.956Z,99138.38
2023-01-15T21:27:40.758Z,99141.00
2023-01-15T21:30:08.696Z,99130.81
2023-01-15T21:32:35.164Z,99136.59
2023-01-15T21:35:01.772Z,99126.25
2023-01-15T21:37:28.302Z,99126.50
2023-01-15T21:39:54.696Z,99127.78
2023-01-15T21:42:53.997Z,99129.25
2023-01-15T21:45:20.483Z,99139.91
2023-01-15T21:47:46.883Z,99131.19
2023-01-15T21:50:13.324Z,99135.88
2023-01-15T21:52:39.748Z,99132.94
2023-01-15T21:55:07.393Z,99117.53
2023-01-15T21:57:33.934Z,99128.53
2023-01-15T22:00:00.375Z,99123.22
2023-01-15T22:02:29.674Z,99128.28
2023-01-15T22:04:56.117Z,99125.56
2023-01-15T22:07:22.548Z,99124.06
2023-01-15T22:09:48.971Z,99130.38
2023-01-15T22:12:15.430Z,99127.03
2023-01-15T22:14:44.509Z,99123.16
2023-01-15T22:17:11.093Z,99114.78
2023-01-15T22:19:37.634Z,99128.28
2023-01-15T22:22:08.480Z,99116.16
2023-01-15T22:24:36.560Z,99127.88
2023-01-15T22:27:06.244Z,99120.06
2023-01-15T22:29:38.258Z,99136.06
2023-01-15T22:32:06.052Z,99128.59
2023-01-15T22:34:32.833Z,99124.06
2023-01-15T22:36:59.302Z,99128.72
2023-01-15T22:39:26.558Z,99129.53
2023-01-15T22:42:12.269Z,99126.41
2023-01-15T22:44:38.931Z,99131.16
2023-01-15T22:47:06.481Z,99123.38
2023-01-15T22:49:33.035Z,99123.63
2023-01-15T22:51:59.603Z,99118.69
2023-01-15T22:54:26.070Z,99116.66
2023-01-15T22:56:52.535Z,99114.59
2023-01-15T22:59:19.412Z,99108.78
2023-01-15T23:01:46.043Z,99102.56
2023-01-15T23:04:20.694Z,99096.53
2023-01-15T23:06:48.845Z,99100.00
2023-01-15T23:09:15.341Z,99092.41
2023-01-15T23:11:41.764Z,99090.72
2023-01-15T23:14:11.086Z,99078.69
2023-01-15T23:16:37.611Z,99081.47
2023-01-15T23:19:05.682Z,99076.72
2023-01-15T23:21:32.936Z,99074.59
2023-01-15T23:24:00.897Z,99078.19
2023-01-15T23:26:30.504Z,99075.03
2023-01-15T23:28:56.961Z,99076.50
2023-01-15T23:31:24.019Z,99070.13
2023-01-15T23:33:50.696Z,99065.84
2023-01-15T23:36:17.321Z,99068.59
2023-01-15T23:38:46.488Z,99071.31
2023-01-15T23:41:15.689Z,99067.56
2023-01-15T23:44:02.062Z,99053.84
2023-01-15T23:46:32.632Z,99055.59
2023-01-15T23:49:10.312Z,99042.38
2023-01-15T23:51:37.574Z,99053.78
2023-01-15T23:54:05.563Z,99040.31
2023-01-15T23:56:33.136Z,99038.06
2023-01-15T23:59:00.262Z,99036.03
